createdAt,value
2022-11-28T00:01:27.306Z,6.50
2022-11-28T00:03:53.933Z,6.03
2022-11-28T00:06:20.927Z,5.72
2022-11-28T00:08:50.085Z,5.75
2022-11-28T00:11:18.387Z,5.78
2022-11-28T00:13:46.273Z,5.82
2022-11-28T00:16:17.265Z,6.00
2022-11-28T00:18:44.392Z,5.78
2022-11-28T00:21:13.669Z,6.10
2022-11-28T00:23:41.247Z,5.57
2022-11-28T00:26:32.362Z,5.50
2022-11-28T00:29:00.261Z,5.97
2022-11-28T00:31:30.322Z,5.43
2022-11-28T00:33:58.091Z,6.03
2022-11-28T00:36:25.611Z,5.60
2022-11-28T00:38:52.430Z,5.70
2022-11-28T00:41:30.127Z,5.68
2022-11-28T00:43:57.820Z,5.60
2022-11-28T00:46:25.148Z,5.32
2022-11-28T00:48:52.270Z,5.50
2022-11-28T00:51:24.116Z,5.53
2022-11-28T00:56:38.100Z,5.47
2022-11-28T00:59:05.314Z,5.50
2022-11-28T01:01:35.200Z,5.50
2022-11-28T01:04:04.925Z,5.13
2022-11-28T01:06:41.939Z,5.70
2022-11-28T01:09:12.307Z,5.78
2022-11-28T01:11:42.869Z,5.38
2022-11-28T01:14:11.116Z,5.68
2022-11-28T01:16:38.923Z,5.78
2022-11-28T01:19:06.858Z,5.45
2022-11-28T01:21:34.484Z,5.57
2022-11-28T01:24:01.248Z,5.65
2022-11-28T01:26:30.442Z,5.55
2022-11-28T01:28:58.867Z,5.70
2022-11-28T01:33:54.479Z,5.10
2022-11-28T01:36:22.322Z,6.20
2022-11-28T01:38:51.297Z,5.63
2022-11-28T01:41:22.505Z,5.35
2022-11-28T01:44:15.475Z,5.32
2022-11-28T01:49:23.169Z,4.47
2022-11-28T01:51:56.129Z,5.30
2022-11-28T01:54:25.569Z,4.80
2022-11-28T01:56:56.961Z,4.85
2022-11-28T01:59:27.307Z,4.68
2022-11-28T02:01:54.117Z,4.70
2022-11-28T02:04:20.777Z,5.13
2022-11-28T02:06:47.592Z,4.65
2022-11-28T02:09:16.755Z,4.78
2022-11-28T02:12:01.863Z,4.78
2022-11-28T02:14:53.595Z,4.93
2022-11-28T02:18:01.090Z,4.88
2022-11-28T02:20:58.958Z,4.60
2022-11-28T02:23:47.235Z,4.40
2022-11-28T02:26:26.494Z,5.10
2022-11-28T02:28:56.053Z,4.97
2022-11-28T02:32:00.155Z,4.85
2022-11-28T02:34:37.592Z,4.63
2022-11-28T02:37:13.027Z,4.88
2022-11-28T02:40:07.163Z,5.05
2022-11-28T02:42:47.757Z,4.53
2022-11-28T02:45:29.528Z,4.57
2022-11-28T02:48:10.829Z,5.18
2022-11-28T02:51:02.276Z,4.80
2022-11-28T02:53:32.267Z,4.80
2022-11-28T02:55:59.791Z,4.65
2022-11-28T02:58:27.158Z,4.40
2022-11-28T03:00:55.378Z,4.57
2022-11-28T03:03:22.120Z,4.57
2022-11-28T03:06:21.040Z,4.82
2022-11-28T03:09:18.503Z,4.57
2022-11-28T03:12:17.039Z,4.20
2022-11-28T03:14:54.881Z,4.25
2022-11-28T03:17:25.769Z,4.35
2022-11-28T03:20:04.920Z,4.43
2022-11-28T03:23:10.313Z,4.60
2022-11-28T03:25:52.639Z,4.25
2022-11-28T03:28:19.518Z,4.30
2022-11-28T03:30:51.218Z,4.63
2022-11-28T03:33:21.398Z,4.63
2022-11-28T03:36:02.744Z,4.15
2022-11-28T03:38:38.226Z,4.20
2022-11-28T03:41:11.160Z,3.92
2022-11-28T03:43:43.301Z,3.97
2022-11-28T03:46:16.104Z,4.53
2022-11-28T03:48:47.803Z,4.43
2022-11-28T03:51:28.953Z,4.25
2022-11-28T03:54:12.364Z,4.07
2022-11-28T03:57:10.999Z,4.53
2022-11-28T03:59:41.915Z,4.60
2022-11-28T04:02:22.194Z,4.38
2022-11-28T04:04:56.000Z,4.45
2022-11-28T04:07:41.710Z,4.97
2022-11-28T04:10:41.023Z,4.47
2022-11-28T04:13:20.076Z,4.18
2022-11-28T04:16:00.853Z,4.68
2022-11-28T04:18:43.155Z,4.45
2022-11-28T04:21:29.719Z,4.90
2022-11-28T04:24:03.489Z,4.68
2022-11-28T04:26:38.211Z,4.30
2022-11-28T04:29:10.359Z,4.80
2022-11-28T04:31:43.035Z,4.50
2022-11-28T04:34:15.804Z,4.78
2022-11-28T04:36:45.021Z,4.40
2022-11-28T04:39:19.182Z,4.82
2022-11-28T04:41:56.827Z,5.15
2022-11-28T04:44:28.256Z,4.70
2022-11-28T04:46:57.192Z,5.00
2022-11-28T04:49:28.406Z,5.18
2022-11-28T04:52:19.225Z,5.10
2022-11-28T04:54:55.958Z,4.63
2022-11-28T04:57:31.261Z,5.30
2022-11-28T05:00:00.862Z,4.78
2022-11-28T05:02:29.625Z,5.18
2022-11-28T05:04:56.624Z,4.80
2022-11-28T05:07:26.027Z,4.63
2022-11-28T05:09:52.788Z,5.05
2022-11-28T05:12:19.338Z,4.90
2022-11-28T05:14:46.184Z,4.70
2022-11-28T05:17:15.415Z,5.13
2022-11-28T05:19:43.380Z,4.90
2022-11-28T05:22:09.913Z,4.80
2022-11-28T05:24:36.522Z,5.05
2022-11-28T05:27:03.278Z,4.90
2022-11-28T05:29:30.178Z,4.88
2022-11-28T05:31:56.821Z,4.60
2022-11-28T05:34:23.572Z,4.72
2022-11-28T05:36:53.829Z,5.03
2022-11-28T05:39:20.670Z,5.25
2022-11-28T05:41:47.595Z,4.97
2022-11-28T05:44:14.302Z,4.80
2022-11-28T05:46:41.257Z,4.80
2022-11-28T05:49:08.842Z,4.65
2022-11-28T05:51:35.568Z,5.88
2022-11-28T05:54:02.184Z,4.63
2022-11-28T05:56:28.723Z,4.65
2022-11-28T05:58:55.340Z,4.53
2022-11-28T06:01:28.045Z,4.63
2022-11-28T06:04:00.273Z,4.40
2022-11-28T06:06:29.632Z,4.75
2022-11-28T06:08:57.027Z,4.80
2022-11-28T06:11:25.111Z,4.80
2022-11-28T06:13:52.402Z,5.10
2022-11-28T06:16:22.737Z,4.93
2022-11-28T06:18:55.571Z,4.65
2022-11-28T06:21:23.212Z,4.82
2022-11-28T06:23:50.020Z,4.60
2022-11-28T06:26:20.023Z,5.10
2022-11-28T06:28:49.151Z,4.65
2022-11-28T06:31:21.328Z,4.60
2022-11-28T06:33:48.344Z,4.82
2022-11-28T06:36:16.594Z,5.05
2022-11-28T06:38:44.134Z,5.03
2022-11-28T06:41:14.575Z,4.53
2022-11-28T06:43:41.730Z,4.95
2022-11-28T06:46:21.926Z,5.05
2022-11-28T06:48:50.606Z,5.13
2022-11-28T06:51:17.790Z,4.80
2022-11-28T06:53:44.765Z,4.97
2022-11-28T06:56:17.741Z,4.90
2022-11-28T06:58:45.158Z,5.05
2022-11-28T07:01:13.615Z,4.97
2022-11-28T07:06:08.299Z,4.75
2022-11-28T07:08:35.133Z,4.80
2022-11-28T07:11:29.556Z,4.80
2022-11-28T07:13:57.567Z,4.53
2022-11-28T07:16:30.070Z,5.30
2022-11-28T07:18:58.280Z,4.75
2022-11-28T07:21:25.784Z,5.78
2022-11-28T07:23:53.427Z,5.35
2022-11-28T07:26:21.809Z,5.15
2022-11-28T07:28:49.594Z,5.28
2022-11-28T07:31:20.027Z,5.32
2022-11-28T07:33:49.128Z,5.75
2022-11-28T07:36:23.591Z,5.50
2022-11-28T07:38:52.791Z,5.32
2022-11-28T07:41:24.933Z,5.53
2022-11-28T07:43:58.411Z,5.43
2022-11-28T07:46:26.148Z,5.65
2022-11-28T07:48:52.913Z,4.95
2022-11-28T07:51:22.644Z,5.80
2022-11-28T07:53:49.874Z,5.28
2022-11-28T07:56:20.743Z,5.65
2022-11-28T07:58:48.269Z,5.53
2022-11-28T08:01:20.346Z,5.93
2022-11-28T08:03:47.322Z,5.70
2022-11-28T08:06:16.779Z,6.13
2022-11-28T08:08:44.306Z,5.80
2022-11-28T08:11:11.393Z,6.18
2022-11-28T08:13:38.778Z,5.85
2022-11-28T08:16:09.530Z,5.97
2022-11-28T08:18:36.501Z,5.82
2022-11-28T08:21:08.761Z,6.07
2022-11-28T08:23:36.419Z,6.88
2022-11-28T08:26:04.622Z,6.25
2022-11-28T08:28:31.745Z,5.90
2022-11-28T08:30:59.685Z,6.45
2022-11-28T08:33:26.608Z,6.53
2022-11-28T08:35:53.246Z,7.10
2022-11-28T08:38:19.789Z,7.18
2022-11-28T08:40:46.570Z,6.15
2022-11-28T08:43:13.247Z,6.20
2022-11-28T08:45:39.968Z,6.43
2022-11-28T08:48:07.003Z,6.45
2022-11-28T08:50:33.546Z,6.35
2022-11-28T08:53:07.830Z,6.40
2022-11-28T08:55:39.142Z,6.07
2022-11-28T08:58:08.565Z,6.05
2022-11-28T09:00:35.214Z,6.05
2022-11-28T09:03:01.959Z,5.90
2022-11-28T09:05:29.552Z,5.75
2022-11-28T09:07:57.006Z,5.55
2022-11-28T09:10:24.978Z,5.97
2022-11-28T09:12:52.470Z,5.47
2022-11-28T09:15:19.330Z,5.82
2022-11-28T09:17:46.694Z,5.50
2022-11-28T09:20:13.661Z,5.57
2022-11-28T09:22:40.863Z,5.28
2022-11-28T09:25:08.294Z,5.80
2022-11-28T09:27:34.877Z,5.72
2022-11-28T09:30:01.456Z,5.75
2022-11-28T09:32:28.079Z,6.30
2022-11-28T09:34:55.541Z,5.70
2022-11-28T09:37:23.107Z,5.93
2022-11-28T09:40:12.179Z,6.03
2022-11-28T09:42:44.524Z,5.93
2022-11-28T09:45:24.082Z,5.35
2022-11-28T09:47:54.894Z,6.20
2022-11-28T09:50:25.332Z,6.03
2022-11-28T09:53:02.555Z,6.45
2022-11-28T09:55:36.767Z,6.55
2022-11-28T09:58:17.280Z,6.90
2022-11-28T10:00:57.497Z,6.32
2022-11-28T10:03:43.836Z,7.18
2022-11-28T10:06:24.207Z,7.70
2022-11-28T10:08:51.648Z,7.72
2022-11-28T10:11:42.855Z,8.00
2022-11-28T10:14:43.363Z,8.35
2022-11-28T10:17:19.300Z,8.95
2022-11-28T10:20:01.424Z,9.32
2022-11-28T10:22:38.172Z,8.60
2022-11-28T10:25:31.469Z,8.70
2022-11-28T10:27:58.168Z,9.10
2022-11-28T10:30:30.228Z,9.77
2022-11-28T10:33:14.153Z,9.13
2022-11-28T10:36:02.063Z,9.80
2022-11-28T10:38:34.023Z,9.55
2022-11-28T10:41:15.886Z,9.02
2022-11-28T10:44:00.580Z,9.35
2022-11-28T10:46:56.422Z,9.98
2022-11-28T10:49:57.818Z,10.63
2022-11-28T10:52:37.222Z,9.70
2022-11-28T10:55:57.451Z,10.45
2022-11-28T10:58:31.801Z,10.30
2022-11-28T11:01:02.297Z,10.18
2022-11-28T11:03:31.962Z,10.82
2022-11-28T11:06:00.501Z,10.63
2022-11-28T11:08:30.100Z,11.00
2022-11-28T11:11:18.294Z,11.10
2022-11-28T11:14:05.727Z,11.10
2022-11-28T11:16:52.911Z,10.68
2022-11-28T11:19:35.108Z,10.57
2022-11-28T11:22:20.498Z,11.68
2022-11-28T11:25:16.448Z,10.45
2022-11-28T11:27:51.711Z,11.13
2022-11-28T11:30:22.906Z,10.98
2022-11-28T11:32:51.567Z,10.52
2022-11-28T11:35:26.147Z,11.10
2022-11-28T11:37:53.244Z,11.57
2022-11-28T11:40:28.116Z,11.15
2022-11-28T11:42:58.192Z,11.68
2022-11-28T11:45:33.380Z,11.68
2022-11-28T11:48:01.023Z,11.93
2022-11-28T11:50:30.832Z,12.00
2022-11-28T11:53:10.474Z,11.68
2022-11-28T11:56:01.360Z,11.50
2022-11-28T11:58:51.579Z,11.95
2022-11-28T12:01:20.844Z,11.23
2022-11-28T12:03:54.103Z,11.63
2022-11-28T12:06:26.702Z,12.50
2022-11-28T12:09:00.798Z,11.23
2022-11-28T12:11:46.550Z,11.63
2022-11-28T12:14:34.497Z,10.95
2022-11-28T12:20:27.727Z,11.48
2022-11-28T12:26:10.347Z,11.18
2022-11-28T12:29:32.027Z,10.55
2022-11-28T12:32:14.037Z,10.50
2022-11-28T12:34:59.622Z,11.15
2022-11-28T12:38:09.850Z,10.85
2022-11-28T12:40:55.477Z,10.75
2022-11-28T12:43:34.475Z,9.88
2022-11-28T12:46:23.155Z,10.48
2022-11-28T12:49:15.207Z,9.90
2022-11-28T12:51:44.371Z,10.82
2022-11-28T12:54:19.931Z,9.88
2022-11-28T12:56:55.710Z,11.00
2022-11-28T12:59:47.713Z,11.02
2022-11-28T13:02:14.345Z,11.25
2022-11-28T13:05:03.411Z,11.82
2022-11-28T13:07:48.911Z,10.40
2022-11-28T13:10:22.780Z,10.65
2022-11-28T13:12:59.293Z,11.20
2022-11-28T13:15:25.896Z,10.95
2022-11-28T13:18:02.206Z,11.23
2022-11-28T13:20:39.027Z,10.60
2022-11-28T13:23:28.964Z,11.07
2022-11-28T13:26:11.205Z,11.60
2022-11-28T13:28:57.425Z,11.35
2022-11-28T13:31:34.629Z,11.57
2022-11-28T13:34:01.917Z,11.40
2022-11-28T13:39:27.956Z,12.18
2022-11-28T13:42:28.454Z,11.27
2022-11-28T13:44:56.372Z,11.45
2022-11-28T13:47:22.862Z,11.48
2022-11-28T13:49:49.757Z,11.50
2022-11-28T13:52:19.303Z,12.45
2022-11-28T13:54:52.979Z,11.85
2022-11-28T13:57:29.753Z,11.93
2022-11-28T14:00:07.725Z,11.07
2022-11-28T14:02:41.895Z,11.90
2022-11-28T14:07:55.972Z,11.95
2022-11-28T14:10:28.624Z,11.82
2022-11-28T14:12:55.171Z,12.40
2022-11-28T14:15:35.637Z,12.07
2022-11-28T14:18:54.348Z,11.82
2022-11-28T14:21:28.284Z,11.63
2022-11-28T14:24:10.245Z,12.20
2022-11-28T14:26:41.042Z,12.13
2022-11-28T14:29:22.692Z,12.13
2022-11-28T14:32:13.853Z,12.82
2022-11-28T14:34:43.337Z,11.07
2022-11-28T14:37:19.409Z,11.15
2022-11-28T14:39:50.300Z,10.50
2022-11-28T14:45:43.194Z,10.45
2022-11-28T14:48:40.061Z,12.00
2022-11-28T14:51:06.651Z,11.70
2022-11-28T14:53:38.796Z,10.55
2022-11-28T14:56:26.633Z,10.88
2022-11-28T14:58:57.951Z,10.65
2022-11-28T15:01:36.034Z,10.70
2022-11-28T15:04:40.527Z,10.82
2022-11-28T15:07:22.243Z,10.63
2022-11-28T15:10:07.445Z,9.80
2022-11-28T15:12:53.350Z,10.43
2022-11-28T15:15:20.891Z,10.15
2022-11-28T15:17:51.514Z,10.80
2022-11-28T15:20:26.341Z,10.82
2022-11-28T15:22:53.055Z,10.25
2022-11-28T15:25:26.161Z,10.85
2022-11-28T15:27:53.773Z,9.80
2022-11-28T15:30:27.493Z,11.38
2022-11-28T15:33:00.272Z,10.70
2022-11-28T15:35:29.822Z,10.80
2022-11-28T15:37:58.347Z,10.40
2022-11-28T15:40:33.959Z,9.68
2022-11-28T15:43:08.101Z,10.60
2022-11-28T15:45:42.612Z,10.65
2022-11-28T15:48:40.354Z,10.45
2022-11-28T15:51:08.142Z,10.35
2022-11-28T15:53:42.474Z,12.85
2022-11-28T15:56:15.271Z,11.40
2022-11-28T15:58:44.093Z,11.55
2022-11-28T16:04:17.717Z,21.55
2022-11-28T16:06:52.176Z,14.13
2022-11-28T16:11:48.064Z,10.82
2022-11-28T16:14:20.585Z,11.60
2022-11-28T16:16:47.493Z,11.32
2022-11-28T16:19:35.165Z,11.73
2022-11-28T16:22:16.973Z,11.43
2022-11-28T16:24:57.453Z,11.52
2022-11-28T16:27:37.658Z,12.25
2022-11-28T16:30:30.631Z,12.00
2022-11-28T16:32:57.954Z,12.05
2022-11-28T16:35:29.711Z,12.82
2022-11-28T16:38:18.904Z,13.40
2022-11-28T16:40:45.848Z,12.02
2022-11-28T16:43:37.698Z,12.45
2022-11-28T16:46:06.767Z,12.63
2022-11-28T16:48:38.718Z,13.25
2022-11-28T16:51:11.972Z,15.50
2022-11-28T16:53:41.399Z,14.45
2022-11-28T16:56:22.991Z,17.88
2022-11-28T16:58:53.750Z,15.65
2022-11-28T17:01:21.886Z,16.50
2022-11-28T17:03:51.225Z,17.52
2022-11-28T17:06:33.983Z,15.80
2022-11-28T17:09:01.818Z,15.23
2022-11-28T17:11:31.812Z,14.25
2022-11-28T17:14:02.275Z,14.02
2022-11-28T17:16:33.364Z,14.30
2022-11-28T17:19:00.252Z,14.95
2022-11-28T17:21:35.750Z,14.40
2022-11-28T17:24:02.842Z,15.07
2022-11-28T17:26:29.776Z,14.77
2022-11-28T17:28:58.523Z,13.48
2022-11-28T17:31:25.470Z,17.48
2022-11-28T17:33:52.242Z,16.08
2022-11-28T17:36:18.698Z,15.90
2022-11-28T17:38:45.655Z,15.02
2022-11-28T17:41:14.473Z,16.65
2022-11-28T17:43:41.799Z,15.43
2022-11-28T17:46:08.843Z,14.45
2022-11-28T17:48:38.855Z,14.77
2022-11-28T17:51:07.046Z,15.38
2022-11-28T17:53:33.574Z,15.52
2022-11-28T17:56:00.637Z,16.13
2022-11-28T17:58:27.607Z,16.92
2022-11-28T18:01:00.279Z,16.38
2022-11-28T18:03:27.958Z,14.43
2022-11-28T18:05:54.665Z,14.95
2022-11-28T18:08:22.224Z,15.82
2022-11-28T18:10:49.187Z,16.98
2022-11-28T18:13:17.396Z,16.02
2022-11-28T18:15:47.023Z,22.08
2022-11-28T18:18:14.068Z,19.65
2022-11-28T18:20:40.661Z,21.13
2022-11-28T18:23:07.559Z,18.08
2022-11-28T18:25:35.317Z,15.27
2022-11-28T18:28:01.884Z,16.83
2022-11-28T18:30:29.368Z,16.17
2022-11-28T18:32:56.745Z,13.23
2022-11-28T18:35:23.281Z,16.27
2022-11-28T18:37:49.814Z,15.80
2022-11-28T18:40:16.477Z,14.45
2022-11-28T18:42:43.171Z,15.40
2022-11-28T18:45:11.768Z,15.02
2022-11-28T18:47:38.610Z,14.55
2022-11-28T18:50:06.009Z,15.00
2022-11-28T18:52:32.484Z,14.52
2022-11-28T18:54:59.061Z,15.27
2022-11-28T18:57:31.117Z,13.95
2022-11-28T18:59:58.373Z,14.65
2022-11-28T19:02:25.241Z,15.65
2022-11-28T19:04:51.924Z,15.15
2022-11-28T19:07:18.524Z,16.17
2022-11-28T19:09:45.478Z,15.32
2022-11-28T19:12:12.571Z,15.35
2022-11-28T19:14:39.189Z,16.10
2022-11-28T19:17:08.262Z,15.00
2022-11-28T19:19:37.554Z,14.75
2022-11-28T19:22:04.181Z,15.35
2022-11-28T19:24:30.844Z,15.57
2022-11-28T19:26:57.700Z,16.63
2022-11-28T19:29:24.469Z,14.52
2022-11-28T19:31:51.176Z,13.98
2022-11-28T19:34:19.042Z,18.45
2022-11-28T19:36:48.817Z,16.67
2022-11-28T19:39:22.195Z,17.20
2022-11-28T19:41:49.918Z,21.92
2022-11-28T19:44:16.825Z,18.33
2022-11-28T19:46:43.988Z,17.52
2022-11-28T19:49:20.077Z,17.38
2022-11-28T19:51:47.941Z,22.63
2022-11-28T19:54:15.756Z,17.00
2022-11-28T19:56:42.478Z,18.92
2022-11-28T19:59:10.725Z,16.75
2022-11-28T20:01:39.157Z,15.50
2022-11-28T20:06:33.515Z,14.23
2022-11-28T20:09:04.273Z,14.55
2022-11-28T20:11:33.550Z,28.17
2022-11-28T20:14:10.132Z,21.05
2022-11-28T20:16:38.512Z,18.10
2022-11-28T20:21:32.743Z,15.95
2022-11-28T20:24:07.356Z,16.95
2022-11-28T20:26:39.575Z,15.98
2022-11-28T20:29:07.278Z,19.38
2022-11-28T20:31:42.409Z,24.58
2022-11-28T20:34:09.152Z,16.05
2022-11-28T20:36:36.463Z,18.80
2022-11-28T20:39:05.053Z,14.18
2022-11-28T20:41:32.025Z,15.45
2022-11-28T20:44:01.545Z,17.13
2022-11-28T20:46:31.212Z,15.77
2022-11-28T20:49:00.224Z,16.25
2022-11-28T20:51:28.771Z,15.65
2022-11-28T20:53:57.466Z,14.85
2022-11-28T20:56:26.376Z,14.10
2022-11-28T20:58:52.882Z,13.57
2022-11-28T21:01:24.724Z,12.77
2022-11-28T21:03:52.638Z,13.48
2022-11-28T21:06:19.789Z,13.00
2022-11-28T21:08:47.042Z,13.25
2022-11-28T21:11:37.017Z,12.73
2022-11-28T21:14:06.743Z,13.43
2022-11-28T21:16:34.618Z,14.02
2022-11-28T21:19:09.387Z,13.32
2022-11-28T21:21:38.443Z,13.75
2022-11-28T21:24:11.078Z,13.43
2022-11-28T21:26:43.227Z,12.63
2022-11-28T21:29:13.637Z,12.80
2022-11-28T21:31:42.618Z,13.25
2022-11-28T21:34:21.156Z,13.35
2022-11-28T21:36:47.785Z,12.93
2022-11-28T21:39:17.514Z,13.40
2022-11-28T21:41:44.455Z,13.27
2022-11-28T21:44:11.401Z,13.88
2022-11-28T21:46:38.117Z,15.23
2022-11-28T21:49:04.866Z,12.82
2022-11-28T21:51:31.353Z,13.75
2022-11-28T21:53:58.563Z,13.07
2022-11-28T21:56:29.272Z,14.35
2022-11-28T21:58:56.255Z,13.95
2022-11-28T22:01:22.811Z,13.32
2022-11-28T22:03:49.812Z,13.73
2022-11-28T22:06:26.477Z,13.73
2022-11-28T22:09:09.190Z,14.35
2022-11-28T22:11:36.489Z,13.05
2022-11-28T22:14:03.038Z,12.88
2022-11-28T22:16:29.978Z,13.18
2022-11-28T22:18:59.251Z,12.50
2022-11-28T22:21:51.049Z,13.52
2022-11-28T22:24:12.893Z,14.63
2022-11-28T22:26:39.347Z,13.13
2022-11-28T22:29:05.960Z,13.98
2022-11-28T22:31:32.970Z,15.43
2022-11-28T22:33:59.845Z,14.15
2022-11-28T22:36:26.510Z,14.32
2022-11-28T22:38:57.927Z,13.98
2022-11-28T22:41:28.816Z,14.73
2022-11-28T22:44:00.729Z,14.73
2022-11-28T22:46:27.963Z,15.02
2022-11-28T22:48:54.578Z,13.55
2022-11-28T22:51:23.701Z,13.85
2022-11-28T22:53:55.383Z,15.55
2022-11-28T22:56:22.232Z,15.13
2022-11-28T22:58:50.089Z,15.88
2022-11-28T23:01:34.901Z,14.98
2022-11-28T23:04:01.817Z,15.48
2022-11-28T23:06:32.033Z,14.82
2022-11-28T23:09:00.359Z,13.63
2022-11-28T23:11:29.455Z,14.68
2022-11-28T23:13:56.252Z,14.90
2022-11-28T23:16:26.460Z,14.73
2022-11-28T23:18:55.991Z,14.70
2022-11-28T23:21:24.908Z,15.05
2022-11-28T23:23:52.220Z,15.95
2022-11-28T23:26:22.276Z,15.52
2022-11-28T23:28:50.055Z,14.90
2022-11-28T23:31:22.544Z,15.15
2022-11-28T23:33:49.582Z,14.95
2022-11-28T23:36:17.602Z,15.00
2022-11-28T23:38:45.567Z,14.15
2022-11-28T23:41:12.638Z,15.60
2022-11-28T23:43:39.254Z,15.10
2022-11-28T23:46:06.875Z,14.68
2022-11-28T23:48:34.324Z,15.35
2022-11-28T23:51:00.866Z,14.63
2022-11-28T23:53:27.552Z,16.35
2022-11-28T23:55:54.065Z,16.02
2022-11-28T23:58:20.710Z,15.30
